createdAt,value
2022-11-18T00:00:19.209Z,4.00
2022-11-18T00:01:19.203Z,4.00
2022-11-18T00:02:21.224Z,4.00
2022-11-18T00:03:19.176Z,4.00
2022-11-18T00:04:19.165Z,4.00
2022-11-18T00:05:19.153Z,4.00
2022-11-18T00:06:19.139Z,4.00
2022-11-18T00:07:21.177Z,4.00
2022-11-18T00:08:21.118Z,4.00
2022-11-18T00:09:21.107Z,4.00
2022-11-18T00:10:19.097Z,4.00
2022-11-18T00:11:19.085Z,4.00
2022-11-18T00:12:19.073Z,4.00
2022-11-18T00:13:19.061Z,4.00
2022-11-18T00:14:19.073Z,4.00
2022-11-18T00:15:19.065Z,4.00
2022-11-18T00:16:19.028Z,4.00
2022-11-18T00:17:19.022Z,4.00
2022-11-18T00:18:19.004Z,4.00
2022-11-18T00:19:20.999Z,4.00
2022-11-18T00:20:18.985Z,4.00
2022-11-18T00:21:18.974Z,4.00
2022-11-18T00:22:18.958Z,4.00
2022-11-18T00:23:18.949Z,4.00
2022-11-18T00:24:18.935Z,4.00
2022-11-18T00:25:18.926Z,4.00
2022-11-18T00:26:18.915Z,4.00
2022-11-18T00:27:18.905Z,4.00
2022-11-18T00:28:20.891Z,4.00
2022-11-18T00:29:19.204Z,4.00
2022-11-18T00:30:18.871Z,4.00
2022-11-18T00:31:18.885Z,4.00
2022-11-18T00:32:18.848Z,4.00
2022-11-18T00:33:18.833Z,4.00
2022-11-18T00:34:18.834Z,4.00
2022-11-18T00:35:18.817Z,4.00
2022-11-18T00:36:18.800Z,4.00
2022-11-18T00:37:18.789Z,4.00
2022-11-18T00:38:20.793Z,4.00
2022-11-18T00:39:21.235Z,4.00
2022-11-18T00:40:18.756Z,4.00
2022-11-18T00:41:20.743Z,4.00
2022-11-18T00:42:20.733Z,4.00
2022-11-18T00:43:18.723Z,4.00
2022-11-18T00:44:18.717Z,4.00
2022-11-18T00:45:18.699Z,4.00
2022-11-18T00:46:18.687Z,4.00
2022-11-18T00:47:18.709Z,4.00
2022-11-18T00:48:18.666Z,4.00
2022-11-18T00:49:19.045Z,4.00
2022-11-18T00:50:18.651Z,4.00
2022-11-18T00:51:18.635Z,4.00
2022-11-18T00:52:18.630Z,4.00
2022-11-18T00:53:18.608Z,4.00
2022-11-18T00:54:18.598Z,4.00
2022-11-18T00:55:18.588Z,4.00
2022-11-18T00:56:18.574Z,4.00
2022-11-18T00:57:18.565Z,4.00
2022-11-18T00:58:20.551Z,4.00
2022-11-18T00:59:21.059Z,4.00
2022-11-18T01:00:18.530Z,4.00
2022-11-18T01:01:18.606Z,4.00
2022-11-18T01:02:18.510Z,4.00
2022-11-18T01:03:18.580Z,4.00
2022-11-18T01:04:18.491Z,4.00
2022-11-18T01:05:20.471Z,4.00
2022-11-18T01:06:18.465Z,4.00
2022-11-18T01:07:18.519Z,4.00
2022-11-18T01:08:18.438Z,4.00
2022-11-18T01:09:18.793Z,4.00
2022-11-18T01:10:20.417Z,4.00
2022-11-18T01:11:18.407Z,4.00
2022-11-18T01:12:18.394Z,4.00
2022-11-18T01:13:18.387Z,4.00
2022-11-18T01:14:18.379Z,4.00
2022-11-18T01:15:18.363Z,4.00
2022-11-18T01:16:18.356Z,4.00
2022-11-18T01:17:18.344Z,4.00
2022-11-18T01:18:18.327Z,4.00
2022-11-18T01:19:18.677Z,4.00
2022-11-18T01:20:18.404Z,4.00
2022-11-18T01:21:18.299Z,4.00
2022-11-18T01:22:18.282Z,4.00
2022-11-18T01:23:18.275Z,4.00
2022-11-18T01:24:18.260Z,4.00
2022-11-18T01:25:18.253Z,4.00
2022-11-18T01:26:18.239Z,4.00
2022-11-18T01:27:20.226Z,4.00
2022-11-18T01:28:23.374Z,4.00
2022-11-18T01:29:18.432Z,4.00
2022-11-18T01:30:18.193Z,4.00
2022-11-18T01:31:18.184Z,4.00
2022-11-18T01:32:24.845Z,4.00
2022-11-18T01:33:18.159Z,4.00
2022-11-18T01:34:20.170Z,4.00
2022-11-18T01:35:18.146Z,4.00
2022-11-18T01:36:18.128Z,4.00
2022-11-18T01:37:18.114Z,4.00
2022-11-18T01:38:20.103Z,4.00
2022-11-18T01:39:18.474Z,4.00
2022-11-18T01:40:18.086Z,4.00
2022-11-18T01:41:18.068Z,4.00
2022-11-18T01:42:18.057Z,4.00
2022-11-18T01:43:18.048Z,4.00
2022-11-18T01:44:18.035Z,4.00
2022-11-18T01:45:18.027Z,4.00
2022-11-18T01:46:18.023Z,4.00
2022-11-18T01:47:18.001Z,4.00
2022-11-18T01:48:19.990Z,4.00
2022-11-18T01:49:18.246Z,4.00
2022-11-18T01:50:17.995Z,4.00
2022-11-18T01:51:17.956Z,4.00
2022-11-18T01:52:17.950Z,4.00
2022-11-18T01:53:19.934Z,4.00
2022-11-18T01:54:19.926Z,4.00
2022-11-18T01:55:17.919Z,4.00
2022-11-18T01:56:17.911Z,4.00
2022-11-18T01:57:17.892Z,4.00
2022-11-18T01:58:17.880Z,4.00
2022-11-18T01:59:18.204Z,4.00
2022-11-18T02:00:17.858Z,4.00
2022-11-18T02:01:17.946Z,4.00
2022-11-18T02:02:17.835Z,4.00
2022-11-18T02:03:19.824Z,4.00
2022-11-18T02:04:17.813Z,4.00
2022-11-18T02:05:19.802Z,4.00
2022-11-18T02:06:17.917Z,4.00
2022-11-18T02:07:17.854Z,4.00
2022-11-18T02:08:17.768Z,4.00
2022-11-18T02:09:18.101Z,4.00
2022-11-18T02:10:17.752Z,4.00
2022-11-18T02:11:17.741Z,4.00
2022-11-18T02:12:17.794Z,4.00
2022-11-18T02:13:17.714Z,4.00
2022-11-18T02:14:19.704Z,4.00
2022-11-18T02:15:19.695Z,4.00
2022-11-18T02:16:17.686Z,4.00
2022-11-18T02:17:17.670Z,4.00
2022-11-18T02:18:17.657Z,4.00
2022-11-18T02:19:17.975Z,4.00
2022-11-18T02:20:19.641Z,4.00
2022-11-18T02:21:19.625Z,4.00
2022-11-18T02:22:19.641Z,4.00
2022-11-18T02:23:17.600Z,4.00
2022-11-18T02:24:17.593Z,4.00
2022-11-18T02:25:17.587Z,4.00
2022-11-18T02:26:17.572Z,4.00
2022-11-18T02:27:17.567Z,4.00
2022-11-18T02:28:17.556Z,4.00
2022-11-18T02:29:17.814Z,4.00
2022-11-18T02:30:17.532Z,4.00
2022-11-18T02:31:17.515Z,4.00
2022-11-18T02:32:19.505Z,4.00
2022-11-18T02:33:19.491Z,4.00
2022-11-18T02:34:17.479Z,4.00
2022-11-18T02:35:17.475Z,4.00
2022-11-18T02:36:17.458Z,4.00
2022-11-18T02:37:17.447Z,4.00
2022-11-18T02:38:17.466Z,4.00
2022-11-18T02:39:17.805Z,4.00
2022-11-18T02:40:17.417Z,4.00
2022-11-18T02:41:17.403Z,4.00
2022-11-18T02:42:17.391Z,4.00
2022-11-18T02:43:19.379Z,4.00
2022-11-18T02:44:17.368Z,4.00
2022-11-18T02:45:17.365Z,4.00
2022-11-18T02:46:17.345Z,4.00
2022-11-18T02:47:19.333Z,4.00
2022-11-18T02:48:17.384Z,4.00
2022-11-18T02:49:17.753Z,4.00
2022-11-18T02:50:17.303Z,4.00
2022-11-18T02:51:17.289Z,4.00
2022-11-18T02:52:17.280Z,4.00
2022-11-18T02:53:17.274Z,4.00
2022-11-18T02:54:17.281Z,4.00
2022-11-18T02:55:17.244Z,4.00
2022-11-18T02:56:19.237Z,4.00
2022-11-18T02:57:19.222Z,4.00
2022-11-18T02:58:17.213Z,4.00
2022-11-18T02:59:17.478Z,4.00
2022-11-18T03:00:17.189Z,4.00
2022-11-18T03:01:17.242Z,4.00
2022-11-18T03:02:17.167Z,4.00
2022-11-18T03:03:19.154Z,4.00
2022-11-18T03:04:17.145Z,4.00
2022-11-18T03:05:19.134Z,4.00
2022-11-18T03:06:17.123Z,4.00
2022-11-18T03:07:17.174Z,4.00
2022-11-18T03:08:17.099Z,0.00
2022-11-18T03:09:17.389Z,4.00
2022-11-18T03:10:19.105Z,0.00
2022-11-18T03:11:17.067Z,4.00
2022-11-18T03:12:17.063Z,4.00
2022-11-18T03:13:17.044Z,4.00
2022-11-18T03:14:17.039Z,4.00
2022-11-18T03:15:17.028Z,4.00
2022-11-18T03:16:17.011Z,4.00
2022-11-18T03:17:17.000Z,4.00
2022-11-18T03:18:16.990Z,4.00
2022-11-18T03:19:17.212Z,4.00
2022-11-18T03:20:16.965Z,4.00
2022-11-18T03:21:16.960Z,4.00
2022-11-18T03:22:18.946Z,4.00
2022-11-18T03:23:16.947Z,4.00
2022-11-18T03:24:16.920Z,4.00
2022-11-18T03:25:18.908Z,4.00
2022-11-18T03:26:16.990Z,4.00
2022-11-18T03:27:16.886Z,4.00
2022-11-18T03:28:16.875Z,4.00
2022-11-18T03:29:17.152Z,4.00
2022-11-18T03:30:16.852Z,4.00
2022-11-18T03:31:16.842Z,4.00
2022-11-18T03:32:16.836Z,4.00
2022-11-18T03:33:16.816Z,4.00
2022-11-18T03:34:16.807Z,4.00
2022-11-18T03:35:16.804Z,4.00
2022-11-18T03:36:16.788Z,4.00
2022-11-18T03:37:16.781Z,4.00
2022-11-18T03:38:18.761Z,4.00
2022-11-18T03:39:17.037Z,4.00
2022-11-18T03:40:16.740Z,4.00
2022-11-18T03:41:16.731Z,4.00
2022-11-18T03:42:16.749Z,4.00
2022-11-18T03:43:16.705Z,4.00
2022-11-18T03:44:16.704Z,4.00
2022-11-18T03:45:16.684Z,4.00
2022-11-18T03:46:16.681Z,4.00
2022-11-18T03:47:16.661Z,4.00
2022-11-18T03:48:16.648Z,4.00
2022-11-18T03:49:16.899Z,4.00
2022-11-18T03:50:16.627Z,4.00
2022-11-18T03:51:16.623Z,4.00
2022-11-18T03:52:16.607Z,4.00
2022-11-18T03:53:18.599Z,4.00
2022-11-18T03:54:18.581Z,4.00
2022-11-18T03:55:16.575Z,4.00
2022-11-18T03:56:18.557Z,4.00
2022-11-18T03:57:16.546Z,4.00
2022-11-18T03:58:16.560Z,4.00
2022-11-18T03:59:16.979Z,4.00
2022-11-18T04:00:18.512Z,4.00
2022-11-18T04:01:16.544Z,4.00
2022-11-18T04:02:16.546Z,4.00
2022-11-18T04:03:16.477Z,4.00
2022-11-18T04:04:16.467Z,4.00
2022-11-18T04:05:16.456Z,4.00
2022-11-18T04:06:16.444Z,4.00
2022-11-18T04:07:16.502Z,4.00
2022-11-18T04:08:16.424Z,4.00
2022-11-18T04:09:16.855Z,4.00
2022-11-18T04:10:16.404Z,4.00
2022-11-18T04:11:18.387Z,4.00
2022-11-18T04:12:16.380Z,4.00
2022-11-18T04:13:16.379Z,4.00
2022-11-18T04:14:16.380Z,4.00
2022-11-18T04:15:16.349Z,4.00
2022-11-18T04:16:16.340Z,4.00
2022-11-18T04:17:16.321Z,4.00
2022-11-18T04:18:16.317Z,4.00
2022-11-18T04:19:16.298Z,4.00
2022-11-18T04:20:16.287Z,4.00
2022-11-18T04:21:16.274Z,4.00
2022-11-18T04:22:16.268Z,4.00
2022-11-18T04:23:16.254Z,4.00
2022-11-18T04:24:16.245Z,4.00
2022-11-18T04:25:16.231Z,4.00
2022-11-18T04:26:18.223Z,4.00
2022-11-18T04:27:16.212Z,4.00
2022-11-18T04:28:16.202Z,4.00
2022-11-18T04:29:16.650Z,4.00
2022-11-18T04:30:16.290Z,4.00
2022-11-18T04:31:16.163Z,4.00
2022-11-18T04:32:16.152Z,4.00
2022-11-18T04:33:16.143Z,4.00
2022-11-18T04:34:16.146Z,4.00
2022-11-18T04:35:16.119Z,4.00
2022-11-18T04:36:16.109Z,4.00
2022-11-18T04:37:16.095Z,4.00
2022-11-18T04:38:21.665Z,4.00
2022-11-18T04:39:16.516Z,4.00
2022-11-18T04:40:16.068Z,4.00
2022-11-18T04:41:18.052Z,4.00
2022-11-18T04:42:18.042Z,4.00
2022-11-18T04:43:16.032Z,4.00
2022-11-18T04:44:18.021Z,4.00
2022-11-18T04:45:18.007Z,4.00
2022-11-18T04:46:16.016Z,4.00
2022-11-18T04:47:15.982Z,4.00
2022-11-18T04:48:15.975Z,4.00
2022-11-18T04:49:16.354Z,4.00
2022-11-18T04:50:15.949Z,4.00
2022-11-18T04:51:17.937Z,4.00
2022-11-18T04:52:15.926Z,4.00
2022-11-18T04:53:17.920Z,4.00
2022-11-18T04:54:15.904Z,4.00
2022-11-18T04:55:17.902Z,4.00
2022-11-18T04:56:15.882Z,4.00
2022-11-18T04:57:15.877Z,4.00
2022-11-18T04:58:15.859Z,4.00
2022-11-18T04:59:18.085Z,4.00
2022-11-18T05:00:15.853Z,4.00
2022-11-18T05:01:15.884Z,4.00
2022-11-18T05:02:15.839Z,4.00
2022-11-18T05:03:15.804Z,4.00
2022-11-18T05:04:15.792Z,4.00
2022-11-18T05:05:15.787Z,4.00
2022-11-18T05:06:15.771Z,4.00
2022-11-18T05:07:15.904Z,4.00
2022-11-18T05:08:17.745Z,4.00
2022-11-18T05:09:16.178Z,4.00
2022-11-18T05:10:15.729Z,4.00
2022-11-18T05:11:15.717Z,4.00
2022-11-18T05:12:15.704Z,4.00
2022-11-18T05:13:15.691Z,4.00
2022-11-18T05:14:15.679Z,4.00
2022-11-18T05:15:15.673Z,4.00
2022-11-18T05:16:17.665Z,4.00
2022-11-18T05:17:15.653Z,4.00
2022-11-18T05:18:17.667Z,4.00
2022-11-18T05:19:16.026Z,4.00
2022-11-18T05:20:15.611Z,4.00
2022-11-18T05:21:15.600Z,4.00
2022-11-18T05:22:15.594Z,4.00
2022-11-18T05:23:15.584Z,4.00
2022-11-18T05:24:15.567Z,4.00
2022-11-18T05:25:15.564Z,4.00
2022-11-18T05:26:15.547Z,4.00
2022-11-18T05:27:15.539Z,4.00
2022-11-18T05:28:15.529Z,4.00
2022-11-18T05:29:15.679Z,4.00
2022-11-18T05:30:15.499Z,4.00
2022-11-18T05:31:15.488Z,4.00
2022-11-18T05:32:15.476Z,4.00
2022-11-18T05:33:15.470Z,4.00
2022-11-18T05:34:15.488Z,4.00
2022-11-18T05:35:15.441Z,4.00
2022-11-18T05:36:15.439Z,4.00
2022-11-18T05:37:17.420Z,4.00
2022-11-18T05:38:15.414Z,4.00
2022-11-18T05:39:15.752Z,4.00
2022-11-18T05:40:15.394Z,4.00
2022-11-18T05:41:15.375Z,4.00
2022-11-18T05:42:15.370Z,4.00
2022-11-18T05:43:15.352Z,4.00
2022-11-18T05:44:15.341Z,4.00
2022-11-18T05:45:15.330Z,4.00
2022-11-18T05:46:15.322Z,4.00
2022-11-18T05:47:15.316Z,4.00
2022-11-18T05:48:15.299Z,4.00
2022-11-18T05:49:15.582Z,4.00
2022-11-18T05:50:19.981Z,4.00
2022-11-18T05:51:15.280Z,4.00
2022-11-18T05:52:15.251Z,4.00
2022-11-18T05:53:15.247Z,4.00
2022-11-18T05:54:15.233Z,4.00
2022-11-18T05:55:15.215Z,4.00
2022-11-18T05:56:15.233Z,4.00
2022-11-18T05:57:15.209Z,4.00
2022-11-18T05:58:15.184Z,4.00
2022-11-18T05:59:15.614Z,4.00
2022-11-18T06:00:15.161Z,4.00
2022-11-18T06:01:15.148Z,4.00
2022-11-18T06:02:15.146Z,4.00
2022-11-18T06:03:15.217Z,4.00
2022-11-18T06:04:15.114Z,4.00
2022-11-18T06:05:15.102Z,4.00
2022-11-18T06:06:15.125Z,4.00
2022-11-18T06:07:15.168Z,0.00
2022-11-18T06:08:15.068Z,4.00
2022-11-18T06:09:17.457Z,4.00
2022-11-18T06:10:17.047Z,4.00
2022-11-18T06:11:15.035Z,4.00
2022-11-18T06:12:15.064Z,4.00
2022-11-18T06:13:15.013Z,8.00
2022-11-18T06:14:15.011Z,4.00
2022-11-18T06:15:14.987Z,4.00
2022-11-18T06:16:14.976Z,4.00
2022-11-18T06:17:14.966Z,4.00
2022-11-18T06:18:14.963Z,8.00
2022-11-18T06:19:15.410Z,8.00
2022-11-18T06:20:14.934Z,8.00
2022-11-18T06:21:14.924Z,8.00
2022-11-18T06:22:14.938Z,8.00
2022-11-18T06:23:14.904Z,8.00
2022-11-18T06:24:14.888Z,8.00
2022-11-18T06:25:16.872Z,12.00
2022-11-18T06:26:14.869Z,12.00
2022-11-18T06:27:14.854Z,12.00
2022-11-18T06:28:14.841Z,16.00
2022-11-18T06:29:18.069Z,16.00
2022-11-18T06:30:14.820Z,20.00
2022-11-18T06:31:14.810Z,16.00
2022-11-18T06:32:14.797Z,40.00
2022-11-18T06:33:14.783Z,40.00
2022-11-18T06:34:14.773Z,40.00
2022-11-18T06:35:14.760Z,40.00
2022-11-18T06:36:14.754Z,44.00
2022-11-18T06:37:14.735Z,44.00
2022-11-18T06:38:14.885Z,48.00
2022-11-18T06:39:14.765Z,48.00
2022-11-18T06:40:16.706Z,48.00
2022-11-18T06:41:14.691Z,48.00
2022-11-18T06:42:14.686Z,52.00
2022-11-18T06:43:16.668Z,52.00
2022-11-18T06:44:14.662Z,56.00
2022-11-18T06:45:16.753Z,56.00
2022-11-18T06:46:16.667Z,60.00
2022-11-18T06:47:16.623Z,64.00
2022-11-18T06:48:14.612Z,64.00
2022-11-18T06:49:14.689Z,68.00
2022-11-18T06:50:16.588Z,72.00
2022-11-18T06:51:14.579Z,76.00
2022-11-18T06:52:14.566Z,76.00
2022-11-18T06:53:14.565Z,76.00
2022-11-18T06:54:14.566Z,80.00
2022-11-18T06:55:14.534Z,84.00
2022-11-18T06:56:14.524Z,84.00
2022-11-18T06:57:14.508Z,84.00
2022-11-18T06:58:14.503Z,84.00
2022-11-18T06:59:14.495Z,92.00
2022-11-18T07:00:14.480Z,92.00
2022-11-18T07:01:14.595Z,92.00
2022-11-18T07:02:14.452Z,92.00
2022-11-18T07:03:14.441Z,92.00
2022-11-18T07:04:16.439Z,96.00
2022-11-18T07:05:14.420Z,104.00
2022-11-18T07:06:14.411Z,100.00
2022-11-18T07:07:14.514Z,104.00
2022-11-18T07:08:14.383Z,108.00
2022-11-18T07:09:14.374Z,112.00
2022-11-18T07:10:14.388Z,112.00
2022-11-18T07:11:14.357Z,116.00
2022-11-18T07:12:14.340Z,120.00
2022-11-18T07:13:16.332Z,124.00
2022-11-18T07:14:16.315Z,124.00
2022-11-18T07:15:16.305Z,132.00
2022-11-18T07:16:14.295Z,132.00
2022-11-18T07:17:14.283Z,136.00
2022-11-18T07:18:14.271Z,140.00
2022-11-18T07:19:16.622Z,136.00
2022-11-18T07:20:14.247Z,140.00
2022-11-18T07:21:16.239Z,136.00
2022-11-18T07:22:14.223Z,144.00
2022-11-18T07:23:14.230Z,144.00
2022-11-18T07:24:14.214Z,144.00
2022-11-18T07:25:14.192Z,152.00
2022-11-18T07:26:14.215Z,156.00
2022-11-18T07:27:14.216Z,160.00
2022-11-18T07:28:14.157Z,164.00
2022-11-18T07:29:14.354Z,176.00
2022-11-18T07:30:14.491Z,188.00
2022-11-18T07:31:14.128Z,204.00
2022-11-18T07:32:14.148Z,220.00
2022-11-18T07:33:14.099Z,236.00
2022-11-18T07:34:14.097Z,252.00
2022-11-18T07:35:14.077Z,276.00
2022-11-18T07:36:14.082Z,300.00
2022-11-18T07:37:14.069Z,324.00
2022-11-18T07:38:14.054Z,348.00
2022-11-18T07:39:14.034Z,376.00
2022-11-18T07:40:14.027Z,400.00
2022-11-18T07:41:14.011Z,416.00
2022-11-18T07:42:14.021Z,436.00
2022-11-18T07:43:13.985Z,452.00
2022-11-18T07:44:13.992Z,476.00
2022-11-18T07:45:13.963Z,496.00
2022-11-18T07:46:13.955Z,512.00
2022-11-18T07:47:13.942Z,524.00
2022-11-18T07:48:13.935Z,540.00
2022-11-18T07:49:13.917Z,552.00
2022-11-18T07:50:13.908Z,572.00
2022-11-18T07:51:13.893Z,584.00
2022-11-18T07:52:13.983Z,588.00
2022-11-18T07:53:13.876Z,596.00
2022-11-18T07:54:13.872Z,608.00
2022-11-18T07:55:13.981Z,636.00
2022-11-18T07:56:13.937Z,684.00
2022-11-18T07:57:13.826Z,724.00
2022-11-18T07:58:13.867Z,768.00
2022-11-18T07:59:13.807Z,820.00
2022-11-18T08:00:13.789Z,836.00
2022-11-18T08:01:13.843Z,888.00
2022-11-18T08:02:13.770Z,896.00
2022-11-18T08:03:14.675Z,896.00
2022-11-18T08:04:13.745Z,864.00
2022-11-18T08:05:17.878Z,868.00
2022-11-18T08:06:13.722Z,848.00
2022-11-18T08:07:13.766Z,844.00
2022-11-18T08:08:13.702Z,844.00
2022-11-18T08:09:13.689Z,860.00
2022-11-18T08:10:13.675Z,872.00
2022-11-18T08:11:18.826Z,868.00
2022-11-18T08:12:13.656Z,880.00
2022-11-18T08:13:13.643Z,880.00
2022-11-18T08:14:13.717Z,900.00
2022-11-18T08:15:13.619Z,900.00
2022-11-18T08:16:13.609Z,896.00
2022-11-18T08:17:13.596Z,880.00
2022-11-18T08:18:14.031Z,884.00
2022-11-18T08:19:13.573Z,860.00
2022-11-18T08:20:13.563Z,840.00
2022-11-18T08:21:13.559Z,824.00
2022-11-18T08:22:13.538Z,824.00
2022-11-18T08:23:13.537Z,796.00
2022-11-18T08:24:13.518Z,816.00
2022-11-18T08:25:13.506Z,788.00
2022-11-18T08:26:13.498Z,760.00
2022-11-18T08:27:13.607Z,788.00
2022-11-18T08:28:13.526Z,776.00
2022-11-18T08:29:13.460Z,796.00
2022-11-18T08:30:13.493Z,804.00
2022-11-18T08:31:13.438Z,780.00
2022-11-18T08:32:13.428Z,860.00
2022-11-18T08:33:13.414Z,848.00
2022-11-18T08:34:13.411Z,884.00
2022-11-18T08:35:13.392Z,896.00
2022-11-18T08:36:13.387Z,832.00
2022-11-18T08:37:13.370Z,936.00
2022-11-18T08:38:13.413Z,952.00
2022-11-18T08:39:13.397Z,984.00
2022-11-18T08:40:13.337Z,1056.00
2022-11-18T08:41:13.328Z,1136.00
2022-11-18T08:42:13.322Z,1080.00
2022-11-18T08:43:13.411Z,1080.00
2022-11-18T08:44:13.289Z,1080.00
2022-11-18T08:45:13.276Z,1064.00
2022-11-18T08:46:13.309Z,1036.00
2022-11-18T08:47:13.362Z,940.00
2022-11-18T08:48:13.243Z,956.00
2022-11-18T08:49:13.229Z,956.00
2022-11-18T08:50:13.221Z,828.00
2022-11-18T08:51:13.210Z,724.00
2022-11-18T08:52:13.197Z,676.00
2022-11-18T08:53:13.185Z,728.00
2022-11-18T08:54:13.173Z,716.00
2022-11-18T08:55:13.163Z,640.00
2022-11-18T08:56:13.157Z,588.00
2022-11-18T08:57:13.144Z,560.00
2022-11-18T08:58:13.127Z,592.00
2022-11-18T08:59:13.120Z,684.00
2022-11-18T09:00:13.106Z,756.00
2022-11-18T09:01:13.166Z,748.00
2022-11-18T09:02:13.120Z,648.00
2022-11-18T09:03:13.078Z,652.00
2022-11-18T09:04:13.060Z,684.00
2022-11-18T09:05:13.046Z,500.00
2022-11-18T09:06:13.041Z,460.00
2022-11-18T09:07:13.103Z,428.00
2022-11-18T09:08:13.016Z,408.00
2022-11-18T09:09:13.005Z,380.00
2022-11-18T09:10:12.995Z,360.00
2022-11-18T09:11:12.983Z,372.00
2022-11-18T09:12:12.968Z,376.00
2022-11-18T09:13:40.510Z,408.00
2022-11-18T09:15:14.496Z,408.00
2022-11-18T09:16:12.928Z,420.00
2022-11-18T09:17:12.912Z,436.00
2022-11-18T09:18:12.923Z,440.00
2022-11-18T09:19:40.147Z,412.00
2022-11-18T09:20:12.877Z,404.00
2022-11-18T09:21:12.874Z,352.00
2022-11-18T09:22:12.855Z,316.00
2022-11-18T09:23:12.844Z,372.00
2022-11-18T09:24:12.831Z,404.00
2022-11-18T09:25:12.821Z,344.00
2022-11-18T09:26:12.817Z,376.00
2022-11-18T09:27:17.123Z,400.00
2022-11-18T09:28:12.792Z,472.00
2022-11-18T09:29:12.780Z,444.00
2022-11-18T09:30:12.764Z,416.00
2022-11-18T09:31:12.761Z,512.00
2022-11-18T09:32:12.746Z,632.00
2022-11-18T09:33:15.409Z,584.00
2022-11-18T09:34:12.739Z,616.00
2022-11-18T09:35:12.712Z,636.00
2022-11-18T09:36:12.694Z,680.00
2022-11-18T09:37:12.683Z,716.00
2022-11-18T09:38:12.671Z,668.00
2022-11-18T09:39:12.660Z,656.00
2022-11-18T09:40:12.650Z,612.00
2022-11-18T09:41:12.646Z,576.00
2022-11-18T09:42:12.627Z,604.00
2022-11-18T09:43:12.617Z,652.00
2022-11-18T09:44:12.604Z,612.00
2022-11-18T09:45:14.666Z,564.00
2022-11-18T09:46:12.588Z,576.00
2022-11-18T09:47:12.571Z,528.00
2022-11-18T09:48:12.557Z,552.00
2022-11-18T09:49:12.547Z,588.00
2022-11-18T09:50:41.777Z,568.00
2022-11-18T09:51:12.526Z,564.00
2022-11-18T09:52:12.518Z,576.00
2022-11-18T09:53:12.511Z,580.00
2022-11-18T09:54:12.491Z,560.00
2022-11-18T09:55:12.479Z,560.00
2022-11-18T09:56:12.530Z,584.00
2022-11-18T09:57:12.456Z,588.00
2022-11-18T09:58:12.446Z,584.00
2022-11-18T09:59:12.432Z,608.00
2022-11-18T10:00:12.426Z,544.00
2022-11-18T10:01:12.537Z,560.00
2022-11-18T10:02:12.419Z,572.00
2022-11-18T10:03:12.388Z,600.00
2022-11-18T10:04:12.378Z,596.00
2022-11-18T10:05:12.369Z,604.00
2022-11-18T10:06:12.414Z,628.00
2022-11-18T10:07:12.418Z,680.00
2022-11-18T10:08:12.332Z,728.00
2022-11-18T10:09:12.320Z,796.00
2022-11-18T10:10:12.313Z,784.00
2022-11-18T10:11:12.302Z,780.00
2022-11-18T10:12:12.290Z,820.00
2022-11-18T10:13:12.281Z,832.00
2022-11-18T10:14:12.267Z,800.00
2022-11-18T10:15:12.254Z,808.00
2022-11-18T10:16:12.246Z,824.00
2022-11-18T10:17:12.228Z,824.00
2022-11-18T10:18:12.219Z,804.00
2022-11-18T10:19:12.208Z,788.00
2022-11-18T10:20:12.202Z,800.00
2022-11-18T10:21:12.181Z,756.00
2022-11-18T10:23:13.188Z,724.00
2022-11-18T10:24:12.151Z,748.00
2022-11-18T10:25:12.140Z,744.00
2022-11-18T10:26:12.132Z,816.00
2022-11-18T10:27:12.115Z,792.00
2022-11-18T10:28:12.104Z,804.00
2022-11-18T10:29:12.103Z,772.00
2022-11-18T10:30:12.080Z,744.00
2022-11-18T10:31:12.076Z,708.00
2022-11-18T10:32:12.062Z,688.00
2022-11-18T10:33:12.051Z,680.00
2022-11-18T10:34:12.048Z,696.00
2022-11-18T10:35:12.033Z,728.00
2022-11-18T10:36:12.014Z,780.00
2022-11-18T10:37:12.005Z,792.00
2022-11-18T10:38:12.020Z,812.00
2022-11-18T10:39:11.984Z,792.00
2022-11-18T10:40:11.968Z,784.00
2022-11-18T10:41:11.956Z,836.00
2022-11-18T10:42:11.948Z,944.00
2022-11-18T10:43:11.934Z,920.00
2022-11-18T10:44:12.312Z,852.00
2022-11-18T10:45:11.918Z,780.00
2022-11-18T10:46:11.903Z,784.00
2022-11-18T10:47:11.892Z,780.00
2022-11-18T10:48:11.878Z,720.00
2022-11-18T10:49:11.875Z,692.00
2022-11-18T10:50:11.856Z,712.00
2022-11-18T10:51:11.844Z,760.00
2022-11-18T10:52:11.830Z,744.00
2022-11-18T10:53:11.823Z,760.00
2022-11-18T10:54:11.868Z,712.00
2022-11-18T10:55:11.798Z,720.00
2022-11-18T10:56:11.788Z,752.00
2022-11-18T10:57:11.774Z,732.00
2022-11-18T10:58:11.874Z,704.00
2022-11-18T10:59:11.785Z,700.00
2022-11-18T11:00:11.745Z,688.00
2022-11-18T11:01:11.800Z,656.00
2022-11-18T11:02:11.758Z,660.00
2022-11-18T11:03:11.714Z,680.00
2022-11-18T11:04:11.695Z,708.00
2022-11-18T11:05:11.683Z,700.00
2022-11-18T11:06:11.677Z,696.00
2022-11-18T11:07:11.673Z,696.00
2022-11-18T11:08:35.003Z,672.00
2022-11-18T11:09:11.640Z,680.00
2022-11-18T11:10:11.842Z,680.00
2022-11-18T11:11:11.614Z,656.00
2022-11-18T11:12:11.606Z,620.00
2022-11-18T11:13:11.594Z,620.00
2022-11-18T11:14:11.583Z,624.00
2022-11-18T11:15:11.569Z,644.00
2022-11-18T11:16:11.560Z,652.00
2022-11-18T11:17:11.623Z,652.00
2022-11-18T11:18:11.537Z,632.00
2022-11-18T11:19:11.525Z,632.00
2022-11-18T11:20:11.519Z,644.00
2022-11-18T11:21:11.503Z,648.00
2022-11-18T11:22:11.495Z,680.00
2022-11-18T11:23:11.518Z,712.00
2022-11-18T11:24:11.470Z,756.00
2022-11-18T11:25:11.458Z,736.00
2022-11-18T11:29:11.416Z,676.00
2022-11-18T11:30:11.401Z,688.00
2022-11-18T11:31:11.394Z,764.00
2022-11-18T11:32:11.378Z,796.00
2022-11-18T11:33:11.370Z,752.00
2022-11-18T11:34:11.354Z,756.00
2022-11-18T11:35:11.348Z,716.00
2022-11-18T11:36:11.337Z,688.00
2022-11-18T11:37:11.323Z,700.00
2022-11-18T11:38:11.311Z,724.00
2022-11-18T11:39:11.306Z,736.00
2022-11-18T11:40:11.287Z,736.00
2022-11-18T11:41:11.279Z,824.00
2022-11-18T11:42:11.294Z,864.00
2022-11-18T11:43:11.275Z,884.00
2022-11-18T11:44:11.256Z,784.00
2022-11-18T11:45:11.232Z,860.00
2022-11-18T11:46:11.225Z,912.00
2022-11-18T11:47:11.225Z,872.00
2022-11-18T11:48:11.197Z,824.00
2022-11-18T11:49:11.184Z,828.00
2022-11-18T11:50:11.176Z,824.00
2022-11-18T11:51:11.169Z,804.00
2022-11-18T11:52:11.160Z,800.00
2022-11-18T11:53:11.152Z,800.00
2022-11-18T11:54:11.128Z,800.00
2022-11-18T11:55:11.117Z,812.00
2022-11-18T11:56:11.107Z,804.00
2022-11-18T11:57:11.095Z,832.00
2022-11-18T11:58:11.109Z,920.00
2022-11-18T11:59:11.073Z,856.00
2022-11-18T12:00:11.062Z,808.00
2022-11-18T12:01:11.061Z,872.00
2022-11-18T12:02:11.038Z,892.00
2022-11-18T12:03:11.091Z,916.00
2022-11-18T12:04:11.019Z,972.00
2022-11-18T12:05:11.008Z,940.00
2022-11-18T12:06:10.995Z,988.00
2022-11-18T12:07:11.034Z,1088.00
2022-11-18T12:08:10.973Z,1140.00
2022-11-18T12:09:10.962Z,1196.00
2022-11-18T12:10:10.949Z,1288.00
2022-11-18T12:11:10.936Z,1420.00
2022-11-18T12:12:10.928Z,1460.00
2022-11-18T12:13:10.915Z,1544.00
2022-11-18T12:14:10.932Z,1492.00
2022-11-18T12:15:10.891Z,1320.00
2022-11-18T12:16:10.889Z,1332.00
2022-11-18T12:17:10.871Z,1380.00
2022-11-18T12:18:10.858Z,1444.00
2022-11-18T12:19:10.862Z,1484.00
2022-11-18T12:20:10.836Z,1700.00
2022-11-18T12:21:10.839Z,2068.00
2022-11-18T12:22:10.820Z,2064.00
2022-11-18T12:23:10.803Z,1848.00
2022-11-18T12:24:10.793Z,1712.00
2022-11-18T12:25:10.782Z,1500.00
2022-11-18T12:26:10.773Z,1460.00
2022-11-18T12:27:10.766Z,1692.00
2022-11-18T12:28:10.748Z,1936.00
2022-11-18T12:29:10.737Z,2092.00
2022-11-18T12:30:10.765Z,2220.00
2022-11-18T12:31:10.713Z,2424.00
2022-11-18T12:32:10.711Z,2340.00
2022-11-18T12:33:10.694Z,2452.00
2022-11-18T12:34:10.686Z,2924.00
2022-11-18T12:35:10.673Z,5144.00
2022-11-18T12:36:10.665Z,4088.00
2022-11-18T12:37:10.654Z,4632.00
2022-11-18T12:38:10.637Z,4520.00
2022-11-18T12:39:10.624Z,3804.00
2022-11-18T12:40:10.618Z,4416.00
2022-11-18T12:41:10.608Z,4312.00
2022-11-18T12:42:10.593Z,4072.00
2022-11-18T12:43:10.582Z,4152.00
2022-11-18T12:44:10.581Z,3964.00
2022-11-18T12:45:10.558Z,3296.00
2022-11-18T12:46:10.572Z,2104.00
2022-11-18T12:47:10.540Z,1896.00
2022-11-18T12:48:10.524Z,1964.00
2022-11-18T12:49:16.929Z,2124.00
2022-11-18T12:50:10.501Z,2988.00
2022-11-18T12:51:10.491Z,1368.00
2022-11-18T12:52:10.482Z,1100.00
2022-11-18T12:53:10.475Z,2364.00
2022-11-18T12:54:13.799Z,2196.00
2022-11-18T12:55:10.444Z,940.00
2022-11-18T12:56:10.432Z,2220.00
2022-11-18T12:57:10.424Z,2128.00